Terminal Aerodrome Forecast
Issued by NWS

Home | Current Version | Previous Version | Text Only | Print | Product List | Glossary On
Versions: 1 2 3 4 5 6 7 8 9 10 11 12
000
FTUS42 TJSJ 210520
TAFKPK
TAF
TKPK 210520Z 2106/2206 07009KT P6SM VCSH SCT019
     FM211400 08012G18KT P6SM FEW022
     FM212330 07009KT P6SM SCT019
      AMD NOT SKED TIL 211100=

USA.gov is the U.S. government's official web portal to all federal, state and local government web resources and services.